Map

Track Data

SID SEASON NUMBER BASIN SUBBASIN NAME ISO_TIME NATURE LAT LON WMO_WIND WMO_PRES WMO_AGENCY TRACK_TYPE DIST2LAND LANDFALL IFLAG USA_AGENCY USA_ATCF_ID USA_LAT USA_LON USA_RECORD USA_STATUS USA_WIND USA_PRES USA_SSHS USA_R34_NE USA_R34_SE USA_R34_SW USA_R34_NW USA_R50_NE USA_R50_SE USA_R50_SW USA_R50_NW USA_R64_NE USA_R64_SE USA_R64_SW USA_R64_NW USA_POCI USA_ROCI USA_RMW USA_EYE TOKYO_LAT TOKYO_LON TOKYO_GRADE TOKYO_WIND TOKYO_PRES TOKYO_R50_DIR TOKYO_R50_LONG TOKYO_R50_SHORT TOKYO_R30_DIR TOKYO_R30_LONG TOKYO_R30_SHORT TOKYO_LAND CMA_LAT CMA_LON CMA_CAT CMA_WIND CMA_PRES HKO_LAT HKO_LON HKO_CAT HKO_WIND HKO_PRES NEWDELHI_LAT NEWDELHI_LON NEWDELHI_GRADE NEWDELHI_WIND NEWDELHI_PRES NEWDELHI_CI NEWDELHI_DP NEWDELHI_POCI REUNION_LAT REUNION_LON REUNION_TYPE REUNION_WIND REUNION_PRES REUNION_TNUM REUNION_CI REUNION_RMW REUNION_R34_NE REUNION_R34_SE REUNION_R34_SW REUNION_R34_NW REUNION_R50_NE REUNION_R50_SE REUNION_R50_SW REUNION_R50_NW REUNION_R64_NE REUNION_R64_SE REUNION_R64_SW REUNION_R64_NW BOM_LAT BOM_LON BOM_TYPE BOM_WIND BOM_PRES BOM_TNUM BOM_CI BOM_RMW BOM_R34_NE BOM_R34_SE BOM_R34_SW BOM_R34_NW BOM_R50_NE BOM_R50_SE BOM_R50_SW BOM_R50_NW BOM_R64_NE BOM_R64_SE BOM_R64_SW BOM_R64_NW BOM_ROCI BOM_POCI BOM_EYE BOM_POS_METHOD BOM_PRES_METHOD NADI_LAT NADI_LON NADI_CAT NADI_WIND NADI_PRES WELLINGTON_LAT WELLINGTON_LON WELLINGTON_WIND WELLINGTON_PRES DS824_LAT DS824_LON DS824_STAGE DS824_WIND DS824_PRES TD9636_LAT TD9636_LON TD9636_STAGE TD9636_WIND TD9636_PRES TD9635_LAT TD9635_LON TD9635_WIND TD9635_PRES TD9635_ROCI NEUMANN_LAT NEUMANN_LON NEUMANN_CLASS NEUMANN_WIND NEUMANN_PRES MLC_LAT MLC_LON MLC_CLASS MLC_WIND MLC_PRES USA_GUST BOM_GUST BOM_GUST_PER REUNION_GUST REUNION_GUST_PER USA_SEAHGT USA_SEARAD_NE USA_SEARAD_SE USA_SEARAD_SW USA_SEARAD_NW STORM_SPEED STORM_DIR
1973226N27076 1973 81 NI AS NOT_NAMED 1973-08-14 00:00:00 TS 26.6000 75.9000 main 0 0 O________OO___ jtwc_io IO071973 26.6000 75.9000 -1 26.6000 75.9000 TC 25 26.6000 75.9000 1 11 285
1973226N27076 1973 81 NI AS NOT_NAMED 1973-08-14 03:00:00 TS 26.7479 75.2939 main 0 0 P________PP___ IO071973 26.7606 75.2779 -1 26.7606 75.2779 TC 25 26.7226 75.3259 1 11 285
1973226N27076 1973 81 NI AS NOT_NAMED 1973-08-14 06:00:00 TS 26.8817 74.7236 main 0 0 O________OP___ jtwc_io IO071973 26.9000 74.7000 -1 26.9000 74.7000 TC 25 26.8451 74.7708 1 10 284
1973226N27076 1973 81 NI AS NOT_NAMED 1973-08-14 09:00:00 TS 26.9949 74.2217 main 0 0 P________PP___ IO071973 27.0073 74.2048 -1 27.0073 74.2048 TC 25 26.9700 74.2554 1 9 285
1973226N27076 1973 81 NI AS NOT_NAMED 1973-08-14 12:00:00 TS 27.1000 73.8000 main 0 0 O________OO___ jtwc_io IO071973 27.1000 73.8000 -1 27.1000 73.8000 TC 25 27.1000 73.8000 1 7 288
1973226N27076 1973 81 NI AS NOT_NAMED 1973-08-14 15:00:00 TS 27.2113 73.4624 main 0 0 P________PP___ IO071973 27.1997 73.4849 -1 27.1997 73.4849 TC 25 27.2346 73.4175 1 6 291
1973226N27076 1973 81 NI AS NOT_NAMED 1973-08-14 18:00:00 TS 27.3196 73.1634 main 0 0 O________OP___ jtwc_io IO071973 27.3000 73.2000 -1 27.3000 73.2000 TC 25 27.3587 73.0902 1 6 292
1973226N27076 1973 81 NI AS NOT_NAMED 1973-08-14 21:00:00 TS 27.4329 72.8310 main 0 0 P________PP___ IO071973 27.4225 72.8502 -1 27.4225 72.8502 TC 25 27.4535 72.7928 1 6 287
1973226N27076 1973 81 NI AS NOT_NAMED 1973-08-15 00:00:00 TS 27.5000 72.5000 main 0 0 O________OO___ jtwc_io IO071973 27.5000 72.5000 -1 27.5000 72.5000 TC 25 27.5000 72.5000 1 6 274
1973226N27076 1973 81 NI AS NOT_NAMED 1973-08-15 03:00:00 TS 27.4757 72.1764 main 0 0 P________PP___ IO071973 27.4798 72.1999 -1 27.4798 72.1999 TC 25 27.4675 72.1294 1 6 260
1973226N27076 1973 81 NI AS NOT_NAMED 1973-08-15 06:00:00 TS 27.3960 71.8554 main 0 0 O________OP___ jtwc_io IO071973 27.4000 71.9000 -1 27.4000 71.9000 TC 25 27.3880 71.7663 1 6 253
1973226N27076 1973 81 NI AS NOT_NAMED 1973-08-15 09:00:00 TS 27.2916 71.4949 main 0 0 P________PP___ IO071973 27.2927 71.5198 -1 27.2927 71.5198 TC 25 27.2894 71.4452 1 6 251
1973226N27076 1973 81 NI AS NOT_NAMED 1973-08-15 12:00:00 TS 27.2000 71.2000 main 0 0 O________OO___ jtwc_io IO071973 27.2000 71.2000 -1 27.2000 71.2000 TC 25 27.2000 71.2000 1 4 255
1973226N27076 1973 81 NI AS NOT_NAMED 1973-08-15 15:00:00 TS 27.1830 71.0541 main 0 0 P________PP___ IO071973 27.1924 71.0476 -1 27.1924 71.0476 TC 25 27.1642 71.0672 1 2 264
1973226N27076 1973 81 NI AS NOT_NAMED 1973-08-15 18:00:00 TS 27.1807 71.0034 main 0 0 O________OP___ jtwc_io IO071973 27.2000 71.0000 -1 27.2000 71.0000 TC 25 27.1420 71.0103 1 1 238
1973226N27076 1973 81 NI AS NOT_NAMED 1973-08-15 21:00:00 TS 27.1462 70.9944 main 0 0 P________PP___ IO071973 27.1575 70.9925 -1 27.1575 70.9925 TC 25 27.1238 70.9983 1 1 0
1973226N27076 1973 81 NI AS NOT_NAMED 1973-08-16 00:00:00 TS 27.1000 71.0000 main 0 0 O________OO___ jtwc_io IO071973 27.1000 71.0000 -1 27.1000 71.0000 TC 25 27.1000 71.0000 1 1 197
1973226N27076 1973 81 NI AS NOT_NAMED 1973-08-16 03:00:00 TS 27.0538 70.9532 main 0 0 P________PP___ IO071973 27.0500 70.9500 -1 27.0500 70.9500 TC 25 27.0612 70.9597 1 1 221
1973226N27076 1973 81 NI AS NOT_NAMED 1973-08-16 06:00:00 TS 27.0050 70.9092 main 0 0 O________OP___ jtwc_io IO071973 27.0000 70.9000 -1 27.0000 70.9000 TC 25 27.0150 70.9275 1 1 207
1973226N27076 1973 81 NI AS NOT_NAMED 1973-08-16 09:00:00 TS 26.9537 70.8972 main 0 0 P________PP___ IO071973 26.9500 70.8925 -1 26.9500 70.8925 TC 25 26.9612 70.9065 1 1 0
1973226N27076 1973 81 NI AS NOT_NAMED 1973-08-16 12:00:00 TS 26.9000 70.9000 main 0 0 O________OO___ jtwc_io IO071973 26.9000 70.9000 -1 26.9000 70.9000 TC 25 26.9000 70.9000 1 1 0
1973226N27076 1973 81 NI AS NOT_NAMED 1973-08-16 15:00:00 TS 26.8490 70.8931 main 0 0 P________PP___ IO071973 26.8575 70.8925 -1 26.8575 70.8925 TC 25 26.8321 70.8943 1 1 0
1973226N27076 1973 81 NI AS NOT_NAMED 1973-08-16 18:00:00 TS 26.7858 70.9016 main 0 0 O________OP___ jtwc_io IO071973 26.8000 70.9000 -1 26.8000 70.9000 TC 25 26.7574 70.9049 1 2 163
1973226N27076 1973 81 NI AS NOT_NAMED 1973-08-16 21:00:00 TS 26.6930 70.9360 main 0 0 P________PP___ IO071973 26.7000 70.9350 -1 26.7000 70.9350 TC 25 26.6790 70.9381 1 2 155
1973226N27076 1973 81 NI AS NOT_NAMED 1973-08-17 00:00:00 TS 26.6000 71.0000 main 0 0 O________OO___ jtwc_io IO071973 26.6000 71.0000 -1 26.6000 71.0000 TC 25 26.6000 71.0000 1 2 138
1973226N27076 1973 81 NI AS NOT_NAMED 1973-08-17 03:00:00 TS 26.5403 71.0887 main 0 0 P________PP___ IO071973 26.5500 71.0850 -1 26.5500 71.0850 TC 25 26.5210 71.0963 1 2 123
1973226N27076 1973 81 NI AS NOT_NAMED 1973-08-17 06:00:00 TS 26.4809 71.2067 main 0 0 O________OP___ jtwc_io IO071973 26.5000 71.2000 -1 26.5000 71.2000 TC 25 26.4426 71.2201 1 3 122
1973226N27076 1973 81 NI AS NOT_NAMED 1973-08-17 09:00:00 TS 26.3893 71.3530 main 0 0 P________PP___ IO071973 26.4000 71.3501 -1 26.4000 71.3501 TC 25 26.3679 71.3588 1 3 125
1973226N27076 1973 81 NI AS NOT_NAMED 1973-08-17 12:00:00 TS 26.3000 71.5000 main 0 0 O________OO___ jtwc_io IO071973 26.3000 71.5000 -1 26.3000 71.5000 TC 25 26.3000 71.5000 1 3 124
1973226N27076 1973 81 NI AS NOT_NAMED 1973-08-17 15:00:00 TS 26.2385 71.6042 main 0 0 P________PP___ IO071973 26.2425 71.5999 -1 26.2425 71.5999 TC 25 26.2305 71.6128 1 2 121
1973226N27076 1973 81 NI AS NOT_NAMED 1973-08-17 18:00:00 TS 26.1899 71.7092 main 0 0 O________OP___ jtwc_io IO071973 26.2000 71.7000 -1 26.2000 71.7000 TC 25 26.1698 71.7276 1 2 115
1973226N27076 1973 81 NI AS NOT_NAMED 1973-08-17 21:00:00 TS 26.1364 71.8462 main 0 0 P________PP___ IO071973 26.1425 71.8425 -1 26.1425 71.8425 TC 25 26.1242 71.8535 1 3 109
1973226N27076 1973 81 NI AS NOT_NAMED 1973-08-18 00:00:00 TS 26.1000 72.0000 main 0 0 O________OO___ jtwc_io IO071973 26.1000 72.0000 -1 26.1000 72.0000 TC 25 26.1000 72.0000 1 3 100
1973226N27076 1973 81 NI AS NOT_NAMED 1973-08-18 03:00:00 TS 26.0903 72.1479 main 0 0 P________PP___ IO071973 26.0849 72.1350 -1 26.0849 72.1350 TC 25 26.1012 72.1736 1 3 88
1973226N27076 1973 81 NI AS NOT_NAMED 1973-08-18 06:00:00 TS 26.1076 72.3233 main 0 0 O________OP___ jtwc_io IO071973 26.1000 72.3000 -1 26.1000 72.3000 TC 25 26.1229 72.3698 1 4 81
1973226N27076 1973 81 NI AS NOT_NAMED 1973-08-18 09:00:00 TS 26.1478 72.5470 main 0 0 P________PP___ IO071973 26.1426 72.5299 -1 26.1426 72.5299 TC 25 26.1581 72.5811 1 4 78
1973226N27076 1973 81 NI AS NOT_NAMED 1973-08-18 12:00:00 TS 26.2000 72.8000 main 0 O________OO___ jtwc_io IO071973 26.2000 72.8000 -1 26.2000 72.8000 TC 25 26.2000 72.8000 6 5 77

About IBTrACS Database

This database is a web-friendly format of International Best Track Archive for Climate Stewardship (IBTrACS), a global best track data archive curated by NOAA dating back to 1842.

Updated: 2021-10-27